FDX1UB GMMN-LPPT
Flight info
| Callsign | FDX1UB |
|---|---|
| Flight time | 0h 56m |
| Altitude | 40000 |
| Route | LAKAM UR722 AMSEL DCT VATZI |
| Aircraft | MD11/H-SDE1E2E3FGHIJ2J3J4J5M1RWXY/LB1D1 |
Departure
| Time | 2026-05-07 16:52 |
|---|---|
| Airport | Mohammed V International Airport (GMMN) |
Arrival
| Time | 2026-05-07 17:49 |
|---|---|
| Airport | Lisbon Humberto Delgado Airport (LPPT) |
| Time | Latitude | Longitude | Altitude | Speed | Heading |
|---|---|---|---|---|---|
| 2026-05-07 16:16 | 33.35910 | -7.57882 | 663 ft | 0 kts | 164° |
| 2026-05-07 16:34 | 33.35911 | -7.57882 | 663 ft | 0 kts | 164° |
| 2026-05-07 16:43 | 33.35912 | -7.57883 | 663 ft | 0 kts | 164° |
| 2026-05-07 16:45 | 33.35894 | -7.57877 | 663 ft | 5 kts | 166° |
| 2026-05-07 16:45 | 33.35851 | -7.57869 | 664 ft | 4 kts | 183° |
| 2026-05-07 16:46 | 33.35806 | -7.57878 | 664 ft | 9 kts | 193° |
| 2026-05-07 16:46 | 33.35735 | -7.57888 | 665 ft | 8 kts | 176° |
| 2026-05-07 16:46 | 33.35674 | -7.57880 | 665 ft | 11 kts | 176° |
| 2026-05-07 16:46 | 33.35618 | -7.57917 | 665 ft | 7 kts | 237° |
| 2026-05-07 16:47 | 33.35598 | -7.57992 | 663 ft | 16 kts | 253° |
| 2026-05-07 16:47 | 33.35562 | -7.58144 | 664 ft | 14 kts | 255° |
| 2026-05-07 16:47 | 33.35554 | -7.58178 | 662 ft | 0 kts | 255° |
| 2026-05-07 16:48 | 33.35552 | -7.58187 | 663 ft | 3 kts | 255° |
| 2026-05-07 16:48 | 33.35548 | -7.58206 | 663 ft | 5 kts | 255° |
| 2026-05-07 16:48 | 33.35547 | -7.58210 | 663 ft | 0 kts | 255° |
| 2026-05-07 16:49 | 33.35547 | -7.58209 | 663 ft | 0 kts | 255° |
| 2026-05-07 16:49 | 33.35547 | -7.58210 | 663 ft | 0 kts | 255° |
| 2026-05-07 16:49 | 33.35540 | -7.58241 | 662 ft | 6 kts | 255° |
| 2026-05-07 16:49 | 33.35529 | -7.58290 | 662 ft | 6 kts | 257° |
| 2026-05-07 16:50 | 33.35531 | -7.58335 | 661 ft | 2 kts | 285° |
| 2026-05-07 16:50 | 33.35534 | -7.58343 | 661 ft | 0 kts | 295° |
| 2026-05-07 16:50 | 33.35543 | -7.58355 | 661 ft | 5 kts | 314° |
| 2026-05-07 16:50 | 33.35573 | -7.58379 | 661 ft | 3 kts | 333° |
| 2026-05-07 16:51 | 33.35584 | -7.58384 | 661 ft | 2 kts | 338° |
| 2026-05-07 16:51 | 33.35589 | -7.58387 | 661 ft | 1 kts | 340° |
| 2026-05-07 16:51 | 33.35592 | -7.58388 | 661 ft | 0 kts | 340° |
| 2026-05-07 16:51 | 33.35593 | -7.58388 | 661 ft | 1 kts | 341° |
| 2026-05-07 16:52 | 33.35858 | -7.58480 | 658 ft | 90 kts | 345° |
| 2026-05-07 16:52 | 33.36740 | -7.58787 | 763 ft | 165 kts | 345° |
| 2026-05-07 16:52 | 33.37958 | -7.59230 | 1410 ft | 195 kts | 345° |
| 2026-05-07 16:52 | 33.39185 | -7.59655 | 2135 ft | 168 kts | 345° |
| 2026-05-07 16:53 | 33.40219 | -7.60052 | 2599 ft | 151 kts | 339° |
| 2026-05-07 16:53 | 33.41127 | -7.60707 | 3173 ft | 154 kts | 323° |
| 2026-05-07 16:53 | 33.41849 | -7.61678 | 3740 ft | 163 kts | 310° |
| 2026-05-07 16:53 | 33.42657 | -7.62969 | 4201 ft | 218 kts | 308° |
| 2026-05-07 16:54 | 33.43892 | -7.64280 | 4784 ft | 256 kts | 332° |
| 2026-05-07 16:54 | 33.45652 | -7.64831 | 5328 ft | 269 kts | 356° |
| 2026-05-07 16:54 | 33.47521 | -7.64765 | 5869 ft | 275 kts | 2° |
| 2026-05-07 16:54 | 33.49458 | -7.64653 | 6386 ft | 281 kts | 0° |
| 2026-05-07 16:55 | 33.51436 | -7.64636 | 6889 ft | 286 kts | 357° |
| 2026-05-07 16:55 | 33.53437 | -7.64718 | 7406 ft | 288 kts | 355° |
| 2026-05-07 16:55 | 33.55451 | -7.64872 | 7927 ft | 291 kts | 354° |
| 2026-05-07 16:55 | 33.57486 | -7.65077 | 8456 ft | 295 kts | 352° |
| 2026-05-07 16:56 | 33.59539 | -7.65318 | 8997 ft | 298 kts | 352° |
| 2026-05-07 16:56 | 33.61615 | -7.65584 | 9538 ft | 302 kts | 351° |
| 2026-05-07 16:56 | 33.65941 | -7.66181 | 10578 ft | 337 kts | 350° |
| 2026-05-07 16:57 | 33.68380 | -7.66534 | 11114 ft | 366 kts | 351° |
| 2026-05-07 16:57 | 33.70973 | -7.66910 | 11723 ft | 380 kts | 350° |
| 2026-05-07 16:57 | 33.73618 | -7.67291 | 12357 ft | 385 kts | 351° |
| 2026-05-07 16:57 | 33.76297 | -7.67676 | 13004 ft | 389 kts | 350° |
| 2026-05-07 16:58 | 33.78966 | -7.68062 | 13618 ft | 395 kts | 350° |
| 2026-05-07 16:58 | 33.81708 | -7.68460 | 13972 ft | 397 kts | 350° |
| 2026-05-07 16:58 | 33.84463 | -7.68862 | 14319 ft | 399 kts | 350° |
| 2026-05-07 16:58 | 33.87225 | -7.69265 | 14674 ft | 401 kts | 349° |
| 2026-05-07 16:59 | 33.90009 | -7.69672 | 14878 ft | 403 kts | 349° |
| 2026-05-07 16:59 | 33.92794 | -7.70080 | 14916 ft | 403 kts | 349° |
| 2026-05-07 16:59 | 33.95589 | -7.70489 | 14981 ft | 404 kts | 349° |
| 2026-05-07 16:59 | 33.98344 | -7.70893 | 15495 ft | 404 kts | 349° |
| 2026-05-07 17:00 | 34.01144 | -7.71304 | 16010 ft | 406 kts | 349° |
| 2026-05-07 17:00 | 34.03961 | -7.71719 | 16529 ft | 409 kts | 349° |
| 2026-05-07 17:00 | 34.06796 | -7.72136 | 17068 ft | 411 kts | 348° |
| 2026-05-07 17:00 | 34.09652 | -7.72557 | 17619 ft | 414 kts | 348° |
| 2026-05-07 17:01 | 34.12525 | -7.72980 | 18175 ft | 417 kts | 348° |
| 2026-05-07 17:01 | 34.15420 | -7.73407 | 18662 ft | 420 kts | 348° |
| 2026-05-07 17:01 | 34.18347 | -7.73784 | 19158 ft | 424 kts | 350° |
| 2026-05-07 17:01 | 34.21307 | -7.74052 | 19646 ft | 428 kts | 351° |
| 2026-05-07 17:02 | 34.24298 | -7.74267 | 20173 ft | 432 kts | 352° |
| 2026-05-07 17:02 | 34.27275 | -7.74462 | 20673 ft | 436 kts | 352° |
| 2026-05-07 17:02 | 34.30315 | -7.74658 | 21203 ft | 439 kts | 352° |
| 2026-05-07 17:02 | 34.33377 | -7.74860 | 21668 ft | 443 kts | 352° |
| 2026-05-07 17:03 | 34.36445 | -7.75067 | 22048 ft | 446 kts | 351° |
| 2026-05-07 17:03 | 34.39554 | -7.75280 | 22441 ft | 449 kts | 351° |
| 2026-05-07 17:03 | 34.42686 | -7.75497 | 22810 ft | 452 kts | 351° |
| 2026-05-07 17:03 | 34.45838 | -7.75717 | 22935 ft | 454 kts | 351° |
| 2026-05-07 17:04 | 34.48146 | -7.75878 | 22946 ft | 455 kts | 351° |
| 2026-05-07 17:04 | 34.51311 | -7.76098 | 22961 ft | 455 kts | 351° |
| 2026-05-07 17:04 | 34.54471 | -7.76318 | 22949 ft | 456 kts | 351° |
| 2026-05-07 17:04 | 34.57634 | -7.76539 | 22947 ft | 456 kts | 351° |
| 2026-05-07 17:05 | 34.60801 | -7.76760 | 22957 ft | 456 kts | 351° |
| 2026-05-07 17:05 | 34.63969 | -7.76982 | 22956 ft | 456 kts | 351° |
| 2026-05-07 17:05 | 34.67136 | -7.77204 | 22996 ft | 456 kts | 351° |
| 2026-05-07 17:05 | 34.70305 | -7.77426 | 22982 ft | 456 kts | 351° |
| 2026-05-07 17:06 | 34.73478 | -7.77651 | 23475 ft | 456 kts | 351° |
| 2026-05-07 17:06 | 34.76659 | -7.77900 | 23982 ft | 459 kts | 351° |
| 2026-05-07 17:06 | 34.79819 | -7.78162 | 24452 ft | 462 kts | 351° |
| 2026-05-07 17:06 | 34.83037 | -7.78433 | 24946 ft | 465 kts | 351° |
| 2026-05-07 17:07 | 34.86272 | -7.78708 | 25445 ft | 467 kts | 351° |
| 2026-05-07 17:07 | 34.89534 | -7.78984 | 25951 ft | 470 kts | 351° |
| 2026-05-07 17:07 | 34.92809 | -7.79259 | 26465 ft | 473 kts | 351° |
| 2026-05-07 17:07 | 34.96108 | -7.79536 | 26991 ft | 476 kts | 350° |
| 2026-05-07 17:08 | 34.99433 | -7.79815 | 27517 ft | 480 kts | 350° |
| 2026-05-07 17:08 | 35.02775 | -7.80096 | 28091 ft | 483 kts | 350° |
| 2026-05-07 17:08 | 35.06143 | -7.80378 | 28643 ft | 486 kts | 350° |
| 2026-05-07 17:08 | 35.09488 | -7.80659 | 29212 ft | 490 kts | 350° |
| 2026-05-07 17:09 | 35.12900 | -7.80946 | 29787 ft | 493 kts | 350° |
| 2026-05-07 17:09 | 35.16328 | -7.81234 | 30320 ft | 496 kts | 350° |
| 2026-05-07 17:09 | 35.19786 | -7.81525 | 30820 ft | 499 kts | 350° |
| 2026-05-07 17:09 | 35.23254 | -7.81815 | 31338 ft | 498 kts | 350° |
| 2026-05-07 17:10 | 35.26711 | -7.82103 | 31873 ft | 496 kts | 349° |
| 2026-05-07 17:10 | 35.30153 | -7.82391 | 32417 ft | 495 kts | 349° |
| 2026-05-07 17:10 | 35.33588 | -7.82679 | 32958 ft | 493 kts | 349° |
| 2026-05-07 17:10 | 35.37012 | -7.82967 | 33518 ft | 491 kts | 349° |
| 2026-05-07 17:11 | 35.40419 | -7.83256 | 34061 ft | 489 kts | 348° |
| 2026-05-07 17:11 | 35.43812 | -7.83553 | 34564 ft | 487 kts | 348° |
| 2026-05-07 17:11 | 35.47187 | -7.83856 | 35074 ft | 486 kts | 348° |
| 2026-05-07 17:11 | 35.50556 | -7.84162 | 35617 ft | 484 kts | 347° |
| 2026-05-07 17:12 | 35.53865 | -7.84463 | 36133 ft | 482 kts | 347° |
| 2026-05-07 17:12 | 35.57207 | -7.84767 | 36681 ft | 480 kts | 347° |
| 2026-05-07 17:12 | 35.60529 | -7.85068 | 37225 ft | 477 kts | 347° |
| 2026-05-07 17:12 | 35.63830 | -7.85367 | 37804 ft | 474 kts | 347° |
| 2026-05-07 17:13 | 35.67089 | -7.85752 | 38380 ft | 463 kts | 341° |
| 2026-05-07 17:13 | 35.70151 | -7.86731 | 38801 ft | 447 kts | 329° |
| 2026-05-07 17:13 | 35.72943 | -7.88313 | 39142 ft | 437 kts | 323° |
| 2026-05-07 17:13 | 35.75611 | -7.90093 | 39505 ft | 436 kts | 323° |
| 2026-05-07 17:14 | 35.78298 | -7.91843 | 39811 ft | 438 kts | 324° |
| 2026-05-07 17:14 | 35.81026 | -7.93492 | 39912 ft | 446 kts | 326° |
| 2026-05-07 17:14 | 35.86804 | -7.96642 | 39936 ft | 453 kts | 329° |
| 2026-05-07 17:15 | 35.92614 | -7.99601 | 39943 ft | 454 kts | 329° |
| 2026-05-07 17:15 | 35.98464 | -8.02558 | 39968 ft | 454 kts | 329° |
| 2026-05-07 17:16 | 36.04302 | -8.05529 | 39941 ft | 454 kts | 329° |
| 2026-05-07 17:16 | 36.10111 | -8.08497 | 39938 ft | 454 kts | 329° |
| 2026-05-07 17:17 | 36.15960 | -8.11493 | 39941 ft | 454 kts | 329° |
| 2026-05-07 17:17 | 36.21807 | -8.14491 | 39941 ft | 455 kts | 329° |
| 2026-05-07 17:18 | 36.27630 | -8.17482 | 39946 ft | 454 kts | 329° |
| 2026-05-07 17:18 | 36.33474 | -8.20489 | 39948 ft | 454 kts | 329° |
| 2026-05-07 17:19 | 36.39277 | -8.23480 | 39946 ft | 455 kts | 329° |
| 2026-05-07 17:19 | 36.45110 | -8.26501 | 39946 ft | 455 kts | 329° |
| 2026-05-07 17:20 | 36.50953 | -8.29534 | 39949 ft | 455 kts | 329° |
| 2026-05-07 17:20 | 36.56806 | -8.32569 | 39940 ft | 455 kts | 329° |
| 2026-05-07 17:21 | 36.62611 | -8.35580 | 39945 ft | 457 kts | 329° |
| 2026-05-07 17:21 | 36.68489 | -8.38636 | 39471 ft | 457 kts | 328° |
| 2026-05-07 17:22 | 36.71422 | -8.40159 | 39062 ft | 455 kts | 328° |
| 2026-05-07 17:22 | 36.74343 | -8.41677 | 38614 ft | 454 kts | 328° |
| 2026-05-07 17:22 | 36.77251 | -8.43191 | 38079 ft | 453 kts | 328° |
| 2026-05-07 17:22 | 36.80169 | -8.44716 | 37564 ft | 454 kts | 328° |
| 2026-05-07 17:23 | 36.83084 | -8.46241 | 37031 ft | 456 kts | 328° |
| 2026-05-07 17:23 | 36.86019 | -8.47778 | 36537 ft | 458 kts | 328° |
| 2026-05-07 17:23 | 36.88969 | -8.49323 | 36050 ft | 460 kts | 328° |
| 2026-05-07 17:23 | 36.91936 | -8.50877 | 35571 ft | 462 kts | 329° |
| 2026-05-07 17:24 | 36.94912 | -8.52435 | 35133 ft | 464 kts | 329° |
| 2026-05-07 17:24 | 36.97860 | -8.53980 | 34670 ft | 466 kts | 329° |
| 2026-05-07 17:24 | 37.00851 | -8.55549 | 34213 ft | 468 kts | 329° |
| 2026-05-07 17:24 | 37.03868 | -8.57133 | 33742 ft | 470 kts | 329° |
| 2026-05-07 17:25 | 37.06887 | -8.58719 | 33234 ft | 471 kts | 329° |
| 2026-05-07 17:25 | 37.09917 | -8.60314 | 32737 ft | 474 kts | 330° |
| 2026-05-07 17:25 | 37.12967 | -8.61919 | 32243 ft | 475 kts | 330° |
| 2026-05-07 17:25 | 37.16025 | -8.63531 | 31762 ft | 477 kts | 330° |
| 2026-05-07 17:26 | 37.19094 | -8.65152 | 31307 ft | 479 kts | 330° |
| 2026-05-07 17:26 | 37.22171 | -8.66784 | 30847 ft | 480 kts | 331° |
| 2026-05-07 17:26 | 37.25257 | -8.68422 | 30383 ft | 482 kts | 331° |
| 2026-05-07 17:26 | 37.28352 | -8.70064 | 29916 ft | 484 kts | 332° |
| 2026-05-07 17:27 | 37.31456 | -8.71708 | 29395 ft | 483 kts | 332° |
| 2026-05-07 17:27 | 37.34512 | -8.73325 | 28887 ft | 482 kts | 332° |
| 2026-05-07 17:27 | 37.37596 | -8.74957 | 28614 ft | 478 kts | 332° |
| 2026-05-07 17:27 | 37.40665 | -8.76584 | 28335 ft | 478 kts | 332° |
| 2026-05-07 17:28 | 37.43723 | -8.78207 | 27992 ft | 475 kts | 332° |
| 2026-05-07 17:28 | 37.46836 | -8.79647 | 27659 ft | 477 kts | 338° |
| 2026-05-07 17:28 | 37.50038 | -8.80793 | 27320 ft | 477 kts | 340° |
| 2026-05-07 17:28 | 37.53260 | -8.81826 | 26988 ft | 476 kts | 341° |
| 2026-05-07 17:29 | 37.56461 | -8.82844 | 26645 ft | 473 kts | 341° |
| 2026-05-07 17:29 | 37.59644 | -8.83890 | 26331 ft | 471 kts | 340° |
| 2026-05-07 17:29 | 37.62791 | -8.84961 | 25881 ft | 466 kts | 340° |
| 2026-05-07 17:29 | 37.65890 | -8.86041 | 25414 ft | 449 kts | 340° |
| 2026-05-07 17:30 | 37.68801 | -8.87061 | 24913 ft | 423 kts | 339° |
| 2026-05-07 17:30 | 37.71559 | -8.88039 | 24427 ft | 412 kts | 339° |
| 2026-05-07 17:30 | 37.74297 | -8.89020 | 23947 ft | 405 kts | 339° |
| 2026-05-07 17:30 | 37.76995 | -8.89991 | 23459 ft | 402 kts | 339° |
| 2026-05-07 17:31 | 37.79675 | -8.90957 | 22900 ft | 399 kts | 339° |
| 2026-05-07 17:31 | 37.82336 | -8.91914 | 22340 ft | 396 kts | 339° |
| 2026-05-07 17:31 | 37.84977 | -8.92863 | 21797 ft | 393 kts | 339° |
| 2026-05-07 17:31 | 37.87596 | -8.93803 | 21262 ft | 389 kts | 340° |
| 2026-05-07 17:32 | 37.90189 | -8.94733 | 20741 ft | 386 kts | 340° |
| 2026-05-07 17:32 | 37.92773 | -8.95660 | 20221 ft | 383 kts | 340° |
| 2026-05-07 17:32 | 37.95298 | -8.96567 | 19724 ft | 380 kts | 340° |
| 2026-05-07 17:32 | 37.97012 | -8.97183 | 19386 ft | 377 kts | 340° |
| 2026-05-07 17:33 | 38.00232 | -8.98335 | 18726 ft | 355 kts | 341° |
| 2026-05-07 17:33 | 38.02580 | -8.99177 | 18238 ft | 348 kts | 341° |
| 2026-05-07 17:33 | 38.04901 | -9.00014 | 17679 ft | 345 kts | 341° |
| 2026-05-07 17:33 | 38.07199 | -9.00844 | 17125 ft | 342 kts | 341° |
| 2026-05-07 17:34 | 38.09473 | -9.01666 | 16544 ft | 338 kts | 341° |
| 2026-05-07 17:34 | 38.11723 | -9.02478 | 15887 ft | 335 kts | 341° |
| 2026-05-07 17:34 | 38.13953 | -9.03284 | 15221 ft | 332 kts | 342° |
| 2026-05-07 17:34 | 38.16164 | -9.04083 | 14562 ft | 328 kts | 342° |
| 2026-05-07 17:35 | 38.17614 | -9.04607 | 14130 ft | 326 kts | 342° |
| 2026-05-07 17:35 | 38.19790 | -9.05394 | 13455 ft | 323 kts | 342° |
| 2026-05-07 17:35 | 38.22630 | -9.06422 | 12488 ft | 318 kts | 342° |
| 2026-05-07 17:35 | 38.24758 | -9.07196 | 11773 ft | 315 kts | 342° |
| 2026-05-07 17:36 | 38.26174 | -9.07712 | 11303 ft | 312 kts | 342° |
| 2026-05-07 17:36 | 38.28225 | -9.08460 | 10633 ft | 308 kts | 342° |
| 2026-05-07 17:36 | 38.30282 | -9.09208 | 9982 ft | 306 kts | 342° |
| 2026-05-07 17:36 | 38.32262 | -9.10124 | 9236 ft | 300 kts | 328° |
| 2026-05-07 17:37 | 38.33737 | -9.11884 | 8501 ft | 288 kts | 298° |
| 2026-05-07 17:37 | 38.34260 | -9.14251 | 8018 ft | 276 kts | 268° |
| 2026-05-07 17:37 | 38.34043 | -9.16640 | 7652 ft | 270 kts | 255° |
| 2026-05-07 17:37 | 38.33629 | -9.18964 | 7278 ft | 267 kts | 255° |
| 2026-05-07 17:38 | 38.33203 | -9.21269 | 7016 ft | 267 kts | 255° |
| 2026-05-07 17:38 | 38.32938 | -9.23603 | 6941 ft | 268 kts | 269° |
| 2026-05-07 17:38 | 38.33116 | -9.25953 | 6948 ft | 271 kts | 276° |
| 2026-05-07 17:38 | 38.33437 | -9.28326 | 6950 ft | 272 kts | 278° |
| 2026-05-07 17:39 | 38.33793 | -9.30694 | 6942 ft | 271 kts | 279° |
| 2026-05-07 17:39 | 38.34158 | -9.33055 | 6948 ft | 271 kts | 278° |
| 2026-05-07 17:39 | 38.34548 | -9.35402 | 6940 ft | 272 kts | 283° |
| 2026-05-07 17:39 | 38.35468 | -9.37510 | 6938 ft | 278 kts | 309° |
| 2026-05-07 17:40 | 38.37060 | -9.38921 | 6948 ft | 283 kts | 336° |
| 2026-05-07 17:40 | 38.39003 | -9.39320 | 6941 ft | 286 kts | 3° |
| 2026-05-07 17:40 | 38.40934 | -9.38796 | 6357 ft | 286 kts | 17° |
| 2026-05-07 17:40 | 38.42791 | -9.37920 | 5499 ft | 283 kts | 20° |
| 2026-05-07 17:41 | 38.44593 | -9.36996 | 5026 ft | 278 kts | 20° |
| 2026-05-07 17:41 | 38.46372 | -9.36057 | 4651 ft | 275 kts | 20° |
| 2026-05-07 17:41 | 38.48125 | -9.35111 | 4257 ft | 272 kts | 21° |
| 2026-05-07 17:41 | 38.49853 | -9.34180 | 3988 ft | 269 kts | 21° |
| 2026-05-07 17:42 | 38.51409 | -9.32939 | 3934 ft | 254 kts | 42° |
| 2026-05-07 17:42 | 38.52495 | -9.31369 | 3934 ft | 223 kts | 50° |
| 2026-05-07 17:42 | 38.53410 | -9.29912 | 3943 ft | 203 kts | 49° |
| 2026-05-07 17:42 | 38.54285 | -9.28498 | 3938 ft | 202 kts | 48° |
| 2026-05-07 17:43 | 38.55153 | -9.27094 | 3943 ft | 202 kts | 47° |
| 2026-05-07 17:43 | 38.56130 | -9.25846 | 3938 ft | 199 kts | 37° |
| 2026-05-07 17:43 | 38.57263 | -9.24861 | 3937 ft | 195 kts | 22° |
| 2026-05-07 17:43 | 38.58485 | -9.24112 | 3939 ft | 195 kts | 21° |
| 2026-05-07 17:44 | 38.59727 | -9.23423 | 3927 ft | 195 kts | 20° |
| 2026-05-07 17:44 | 38.60977 | -9.22759 | 3678 ft | 194 kts | 19° |
| 2026-05-07 17:44 | 38.62201 | -9.22109 | 3443 ft | 192 kts | 19° |
| 2026-05-07 17:44 | 38.63431 | -9.21453 | 3195 ft | 188 kts | 18° |
| 2026-05-07 17:45 | 38.64588 | -9.20831 | 2920 ft | 172 kts | 18° |
| 2026-05-07 17:45 | 38.65646 | -9.20263 | 2693 ft | 158 kts | 17° |
| 2026-05-07 17:45 | 38.66623 | -9.19739 | 2454 ft | 146 kts | 16° |
| 2026-05-07 17:45 | 38.67552 | -9.19246 | 2290 ft | 145 kts | 14° |
| 2026-05-07 17:46 | 38.68483 | -9.18755 | 2095 ft | 145 kts | 17° |
| 2026-05-07 17:46 | 38.69413 | -9.18257 | 1884 ft | 145 kts | 16° |
| 2026-05-07 17:46 | 38.70336 | -9.17764 | 1720 ft | 144 kts | 15° |
| 2026-05-07 17:46 | 38.71244 | -9.17281 | 1511 ft | 144 kts | 16° |
| 2026-05-07 17:47 | 38.72165 | -9.16785 | 1338 ft | 144 kts | 15° |
| 2026-05-07 17:47 | 38.73084 | -9.16295 | 1134 ft | 146 kts | 15° |
| 2026-05-07 17:47 | 38.74022 | -9.15792 | 947 ft | 142 kts | 17° |
| 2026-05-07 17:47 | 38.74916 | -9.15312 | 723 ft | 142 kts | 16° |
| 2026-05-07 17:48 | 38.75820 | -9.14826 | 552 ft | 143 kts | 19° |
| 2026-05-07 17:48 | 38.76731 | -9.14339 | 373 ft | 141 kts | 18° |
| 2026-05-07 17:48 | 38.77515 | -9.13931 | 356 ft | 95 kts | 23° |
| 2026-05-07 17:48 | 38.77992 | -9.13669 | 354 ft | 50 kts | 24° |
| 2026-05-07 17:49 | 38.78256 | -9.13515 | 357 ft | 36 kts | 37° |
| 2026-05-07 17:49 | 38.78379 | -9.13341 | 358 ft | 11 kts | 59° |
| 2026-05-07 17:49 | 38.78385 | -9.13304 | 360 ft | 1 kts | 89° |
| 2026-05-07 17:49 | 38.78384 | -9.13300 | 360 ft | 0 kts | 91° |
| 2026-05-07 17:50 | 38.78384 | -9.13299 | 360 ft | 1 kts | 91° |
| 2026-05-07 17:51 | 38.78372 | -9.13264 | 357 ft | 6 kts | 131° |
| 2026-05-07 17:51 | 38.78324 | -9.13262 | 362 ft | 10 kts | 193° |
| 2026-05-07 17:51 | 38.78234 | -9.13308 | 359 ft | 17 kts | 202° |
| 2026-05-07 17:51 | 38.78120 | -9.13368 | 361 ft | 17 kts | 201° |
| 2026-05-07 17:52 | 38.78012 | -9.13427 | 361 ft | 17 kts | 204° |
| 2026-05-07 17:52 | 38.77908 | -9.13485 | 361 ft | 16 kts | 203° |
| 2026-05-07 17:52 | 38.77807 | -9.13539 | 358 ft | 16 kts | 202° |
| 2026-05-07 17:52 | 38.77708 | -9.13588 | 361 ft | 14 kts | 196° |
| 2026-05-07 17:53 | 38.77659 | -9.13599 | 358 ft | 2 kts | 174° |
| 2026-05-07 17:53 | 38.77632 | -9.13593 | 362 ft | 10 kts | 169° |
| 2026-05-07 17:53 | 38.77522 | -9.13565 | 359 ft | 18 kts | 168° |
| 2026-05-07 17:53 | 38.77404 | -9.13532 | 360 ft | 17 kts | 168° |
| 2026-05-07 17:54 | 38.77289 | -9.13500 | 356 ft | 17 kts | 168° |
| 2026-05-07 17:54 | 38.77176 | -9.13470 | 354 ft | 16 kts | 168° |
| 2026-05-07 17:54 | 38.77103 | -9.13488 | 363 ft | 8 kts | 220° |
| 2026-05-07 17:54 | 38.77078 | -9.13516 | 358 ft | 7 kts | 210° |
| 2026-05-07 17:55 | 38.77023 | -9.13529 | 362 ft | 6 kts | 172° |
| 2026-05-07 17:55 | 38.76973 | -9.13527 | 357 ft | 6 kts | 198° |
| 2026-05-07 17:55 | 38.76959 | -9.13548 | 357 ft | 3 kts | 237° |
| 2026-05-07 17:55 | 38.76952 | -9.13566 | 362 ft | 2 kts | 251° |
| 2026-05-07 17:56 | 38.76950 | -9.13584 | 360 ft | 4 kts | 259° |
| 2026-05-07 17:56 | 38.76948 | -9.13600 | 361 ft | 0 kts | 260° |